ADDS METAR Data INFO
IDs: Format: Raw Decoded Include TAF

Data at: 0546 UTC 22 Nov 2017

KT35 220535Z AUTO 01007KT 10SM SCT022 BKN055 15/12 A3015 RMK AO2 T01510115
KT35 220515Z AUTO 36009KT 10SM BKN024 OVC055 16/12 A3014 RMK AO2 T01570116
KT35 220455Z AUTO 01010G14KT 10SM OVC026 16/12 A3014 RMK AO2 T01620118
KT35 220435Z AUTO 01009KT 10SM SCT028 BKN035 BKN050 16/12 A3012 RMK AO2 T01630120
KT35 220415Z AUTO 01008KT 10SM SCT034 BKN050 17/12 A3011 RMK AO2 T01650120
KT35 220355Z AUTO 01011G15KT 10SM BKN034 OVC048 17/12 A3010 RMK AO2 T01720122
KT35 220335Z AUTO 01011G17KT 10SM BKN036 OVC043 18/13 A3010 RMK AO2 T01760125
KT35 220315Z AUTO 01010G16KT 10SM BKN036 OVC043 18/13 A3009 RMK AO2 T01750131
KT35 220255Z AUTO 02010KT 10SM SCT036 OVC046 17/13 A3008 RMK AO2 T01730132
KT35 220235Z AUTO 01008KT 10SM SCT038 OVC050 17/13 A3006 RMK AO2 T01700126
KT35 220215Z AUTO 36006KT 10SM SCT041 SCT050 17/12 A3005 RMK AO2 T01650123
KT35 220155Z AUTO 01006KT 10SM SCT041 17/12 A3003 RMK AO2 T01670121
KT35 220135Z AUTO 01006KT 10SM CLR 17/12 A3001 RMK AO2 T01710121
KT35 220115Z AUTO 01005KT 10SM SCT055 18/12 A3000 RMK AO2 T01760121
KT35 220055Z AUTO 02004KT 10SM CLR 19/12 A2998 RMK AO2 T01850122
KT35 220035Z AUTO 02005KT 10SM SCT041 SCT050 19/12 A2997 RMK AO2 T01920120
KT35 220015Z AUTO 03004KT 10SM SCT043 BKN050 BKN055 20/12 A2996 RMK AO2 T01980116
KT35 212355Z AUTO 02006KT 10SM OVC050 20/12 A2995 RMK AO2 T02010115 10235 20197
KT35 212335Z AUTO 02005KT 10SM BKN050 21/11 A2994 RMK AO2 T02050113
KT35 212315Z AUTO 01006KT 10SM SCT050 21/11 A2993 RMK AO2 T02110113
KT35 212255Z AUTO 36004KT 10SM BKN050 22/11 A2992 RMK AO2 T02200113
KT35 212235Z AUTO 00000KT 10SM SCT050 22/11 A2991 RMK AO2 LTG DSNT SE T02210112
KT35 212215Z AUTO 00000KT 10SM SCT050 23/11 A2990 RMK AO2 T02250114
KT35 212155Z AUTO 30005KT 10SM CLR 22/11 A2990 RMK AO2 LTG DSNT SE T02200113
KT35 212135Z AUTO 31003KT 10SM CLR 23/11 A2989 RMK AO2 T02270114
KT35 212115Z AUTO 00000KT 10SM SCT045 23/11 A2987 RMK AO2 T02270107
KT35 212055Z AUTO 00000KT 10SM BKN043 23/11 A2986 RMK AO2 LTG DSNT SE T02250112
KT35 212035Z AUTO 26005KT 10SM SCT043 23/12 A2986 RMK AO2 T02270116
KT35 212015Z AUTO 15005KT 10SM CLR 22/12 A2986 RMK AO2 LTG DSNT SE T02210116
KT35 211955Z AUTO 27005KT 10SM CLR 23/12 A2987 RMK AO2 T02340119
KT35 211935Z AUTO 22006KT 10SM CLR 23/12 A2987 RMK AO2 T02330122
KT35 211915Z AUTO 18006KT 10SM CLR 22/12 A2987 RMK AO2 T02240124
KT35 211855Z AUTO 00000KT 10SM CLR 22/13 A2987 RMK AO2 T02150127
KT35 211835Z AUTO 18008KT 10SM CLR 21/13 A2987 RMK AO2 T02120131
KT35 211815Z AUTO 21007KT 10SM CLR 20/13 A2987 RMK AO2 T02040134
KT35 211755Z AUTO 20011G21KT 10SM CLR 21/13 A2987 RMK AO2 T02100131 10210 20099
KT35 211735Z AUTO 19012G16KT 10SM SCT019 21/14 A2988 RMK AO2 T02050138
KT35 211715Z AUTO 19008G14KT 10SM SCT017 19/14 A2989 RMK AO2 T01860138
KT35 211655Z AUTO 20009G14KT 10SM BKN015 BKN021 20/14 A2989 RMK AO2 T01970143
KT35 211635Z AUTO 22011G14KT 10SM BKN013 BKN021 18/14 A2989 RMK AO2 T01760137
KT35 211615Z AUTO 21006KT 10SM OVC013 17/14 A2990 RMK AO2 T01690140
KT35 211555Z AUTO 18005KT 10SM BKN011 17/14 A2990 RMK AO2 T01660137
KT35 211535Z AUTO 18004KT 10SM SCT011 15/13 A2991 RMK AO2 T01500130
KT35 211515Z AUTO 15004KT 10SM CLR 15/13 A2991 RMK AO2 T01470127
KT35 211455Z AUTO 15005KT 10SM SCT006 14/12 A2991 RMK AO2 T01360121
KT35 211435Z AUTO 16004KT 10SM BKN006 OVC019 13/12 A2992 RMK AO2 T01300116
KT35 211415Z AUTO 18005KT 10SM SCT008 BKN019 BKN029 13/12 A2992 RMK AO2 T01260115
KT35 211355Z AUTO 16004KT 10SM SCT010 SCT029 12/11 A2991 RMK AO2 T01180112
KT35 211335Z AUTO 15003KT 10SM SCT025 11/10 A2991 RMK AO2 T01060101
KT35 211315Z AUTO 00000KT 10SM SCT025 10/09 A2991 RMK AO2 T00990093
KT35 211255Z AUTO 16003KT 10SM SCT025 11/10 A2989 RMK AO2 T01050098
KT35 211235Z AUTO 00000KT 10SM CLR 10/10 A2989 RMK AO2 T01040097
KT35 211215Z AUTO 18006KT 10SM CLR 10/10 A2989 RMK AO2 T01030096
KT35 211155Z AUTO 17008KT 10SM CLR 10/10 A2988 RMK AO2 T01020095 10115 20092
KT35 211135Z AUTO 18006KT 10SM CLR 10/09 A2989 RMK AO2 T00990091
KT35 211115Z AUTO 16005KT 10SM CLR 10/09 A2989 RMK AO2 T01010093
KT35 211055Z AUTO 17004KT 10SM CLR 10/09 A2990 RMK AO2 T01000092
KT35 211035Z AUTO 16006KT 10SM CLR 10/09 A2990 RMK AO2 T01010093
KT35 211015Z AUTO 15005KT 10SM CLR 10/09 A2991 RMK AO2 T01000091
KT35 210955Z AUTO 16003KT 10SM CLR 09/09 A2993 RMK AO2 T00940086
KT35 210935Z AUTO 00000KT 10SM CLR 10/09 A2993 RMK AO2 T00950086
KT35 210915Z AUTO 00000KT 10SM CLR 10/09 A2992 RMK AO2 T00970087
KT35 210855Z AUTO 00000KT 10SM CLR 10/09 A2992 RMK AO2 T00980087
KT35 210835Z AUTO 16003KT 10SM CLR 10/09 A2992 RMK AO2 T00980086
KT35 210815Z AUTO 17003KT 10SM CLR 10/09 A2993 RMK AO2 T01000087
KT35 210755Z AUTO 21003KT 10SM CLR 10/08 A2995 RMK AO2 T00980084
KT35 210735Z AUTO 19005KT 10SM CLR 10/09 A2995 RMK AO2 T01040086
KT35 210715Z AUTO 19005KT 10SM CLR 11/09 A2996 RMK AO2 T01070088
KT35 210655Z AUTO 18006KT 10SM CLR 11/09 A2996 RMK AO2 T01100090
KT35 210635Z AUTO 19006KT 10SM CLR 11/09 A2997 RMK AO2 T01050085
KT35 210615Z AUTO 17005KT 10SM CLR 11/09 A2997 RMK AO2 T01110086
KT35 210555Z AUTO 18005KT 10SM CLR 12/09 A2998 RMK AO2 T01150086 10155 20112 402000025
KT35 210535Z AUTO 18005KT 10SM CLR 12/09 A2998 RMK AO2 T01180085
KT35 210515Z AUTO 17006KT 10SM CLR 13/09 A2999 RMK AO2 T01250087
KT35 210455Z AUTO 17005KT 10SM CLR 13/09 A3000 RMK AO2 T01260086
KT35 210435Z AUTO 18007KT 10SM CLR 13/09 A3000 RMK AO2 T01280085
KT35 210415Z AUTO 19006KT 10SM CLR 13/08 A3001 RMK AO2 T01250082
KT35 210355Z AUTO 17006KT 10SM CLR 13/08 A2999 RMK AO2 T01270079
KT35 210335Z AUTO 18006KT 10SM CLR 12/07 A3001 RMK AO2 T01200071
KT35 210315Z AUTO 18006KT 10SM CLR 13/07 A3000 RMK AO2 T01260068
KT35 210255Z AUTO 19007KT 10SM CLR 12/06 A3001 RMK AO2 T01200064
KT35 210235Z AUTO 17005KT 10SM CLR 12/06 A3001 RMK AO2 T01240058
KT35 210215Z AUTO 17004KT 10SM CLR 13/04 A3001 RMK AO2 T01300044
KT35 210155Z AUTO 17003KT 10SM CLR 14/04 A3002 RMK AO2 T01350040
KT35 210135Z AUTO 17003KT 10SM CLR 13/04 A3002 RMK AO2 T01290040
KT35 210115Z AUTO 16004KT 10SM CLR 13/04 A3002 RMK AO2 T01320037
KT35 210055Z AUTO 17003KT 10SM CLR 14/04 A3002 RMK AO2 T01400035
KT35 210035Z AUTO 17003KT 10SM CLR 15/03 A3002 RMK AO2 T01450033
KT35 210015Z AUTO 19004KT 10SM CLR 15/03 A3002 RMK AO2 T01520032
KT35 202355Z AUTO 18004KT 10SM CLR 16/03 A3002 RMK AO2 T01550030 10200 20155
KT35 202335Z AUTO 19003KT 10SM CLR 16/03 A3002 RMK AO2 T01610030
KT35 202315Z AUTO 20004KT 10SM CLR 17/03 A3003 RMK AO2 T01710027
KT35 202255Z AUTO 19005KT 10SM CLR 18/03 A3003 RMK AO2 T01780028
KT35 202235Z AUTO 19008G15KT 10SM CLR 19/03 A3003 RMK AO2 T01870025
KT35 202215Z AUTO 20009KT 10SM CLR 19/03 A3003 RMK AO2 T01940025
KT35 202155Z AUTO 19011G14KT 10SM CLR 20/03 A3003 RMK AO2 T01950027
KT35 202135Z AUTO 19009KT 10SM CLR 20/02 A3004 RMK AO2 T01960023
KT35 202115Z AUTO 18011KT 10SM CLR 20/02 A3003 RMK AO2 T01970021
KT35 202055Z AUTO 19012KT 10SM CLR 20/02 A3004 RMK AO2 T02000017
KT35 202035Z AUTO 19010G18KT 10SM CLR 20/01 A3004 RMK AO2 T01980013
KT35 202015Z AUTO 17007G15KT 10SM CLR 20/01 A3006 RMK AO2 T01950005
KT35 201955Z AUTO 19009KT 10SM CLR 19/00 A3007 RMK AO2 T01930004
KT35 201935Z AUTO 19011G17KT 10SM CLR 19/00 A3009 RMK AO2 T01880000
KT35 201915Z AUTO 18009G15KT 10SM CLR 19/01 A3010 RMK AO2 T01850006
KT35 201855Z AUTO 20009KT 10SM CLR 18/00 A3012 RMK AO2 T01840003
KT35 201835Z AUTO 17009G14KT 10SM CLR 18/00 A3014 RMK AO2 T01780002
KT35 201815Z AUTO 19012G16KT 10SM CLR 18/00 A3016 RMK AO2 T01771001
KT35 201755Z AUTO 17007KT 10SM CLR 18/00 A3018 RMK AO2 T01760004 10176 20025